Aviation Digital Data Service (ADDS)

Output produced by METARs form (0838 UTC 19 April 2019)
found at http://www.aviationweather.gov/metar/data/
 
METAR text: PGRO 190750Z 06012KT 7SM -RA BR SCT012 BKN080 28/22 A2984 RMK WIND DATA ESTIMATED
Conditions at: PGRO (ROTA INTL AIRP , FM) observed 0750 UTC 19 April 2019
Temperature: 28.0°C (82°F)
Dewpoint: 22.0°C (72°F) [RH = 70%]
Pressure (altimeter): 29.84 inches Hg (1010.6 mb)
Winds: from the ENE (60 degrees) at 14 MPH (12 knots; 6.2 m/s)
Visibility: 7 miles (11 km)
Ceiling: 8000 feet AGL
Clouds: scattered clouds at 1200 feet AGL
broken clouds at 8000 feet AGL
Weather: -RA BR  (light rain, mist)

METAR text: PGRO 190650Z 04009KT 7SM FEW013 SCT100 28/21 A2983 RMK WIND DATA ESTIMATED
Conditions at: PGRO (ROTA INTL AIRP , FM) observed 0650 UTC 19 April 2019
Temperature: 28.0°C (82°F)
Dewpoint: 21.0°C (70°F) [RH = 66%]
Pressure (altimeter): 29.83 inches Hg (1010.2 mb)
Winds: from the NE (40 degrees) at 10 MPH (9 knots; 4.6 m/s)
Visibility: 7 miles (11 km)
Ceiling: at least 12,000 feet AGL
Clouds: few clouds at 1300 feet AGL
scattered clouds at 10000 feet AGL
Weather: no significant weather observed at this time

METAR text: PGRO 190550Z 04012KT 7SM FEW013 SCT050 28/21 A2983 RMK WIND DATA ESTIMATED
Conditions at: PGRO (ROTA INTL AIRP , FM) observed 0550 UTC 19 April 2019
Temperature: 28.0°C (82°F)
Dewpoint: 21.0°C (70°F) [RH = 66%]
Pressure (altimeter): 29.83 inches Hg (1010.2 mb)
Winds: from the NE (40 degrees) at 14 MPH (12 knots; 6.2 m/s)
Visibility: 7 miles (11 km)
Ceiling: at least 12,000 feet AGL
Clouds: few clouds at 1300 feet AGL
scattered clouds at 5000 feet AGL
Weather: no significant weather observed at this time

METAR text: PGRO 190450Z 03014KT 7SM FEW012 SCT045 SCT100 28/21 A2984 RMK WIND DATA ESTIMATED
Conditions at: PGRO (ROTA INTL AIRP , FM) observed 0450 UTC 19 April 2019
Temperature: 28.0°C (82°F)
Dewpoint: 21.0°C (70°F) [RH = 66%]
Pressure (altimeter): 29.84 inches Hg (1010.6 mb)
Winds: from the NNE (30 degrees) at 16 MPH (14 knots; 7.2 m/s)
Visibility: 7 miles (11 km)
Ceiling: at least 12,000 feet AGL
Clouds: few clouds at 1200 feet AGL
scattered clouds at 4500 feet AGL
scattered clouds at 10000 feet AGL
Weather: no significant weather observed at this time

METAR text: PGRO 190350Z 05012KT 7SM SCT014 28/21 A2986 RMK WIND DATA ESTIMATED
Conditions at: PGRO (ROTA INTL AIRP , FM) observed 0350 UTC 19 April 2019
Temperature: 28.0°C (82°F)
Dewpoint: 21.0°C (70°F) [RH = 66%]
Pressure (altimeter): 29.86 inches Hg (1011.3 mb)
Winds: from the NE (50 degrees) at 14 MPH (12 knots; 6.2 m/s)
Visibility: 7 miles (11 km)
Ceiling: at least 12,000 feet AGL
Clouds: scattered clouds at 1400 feet AGL
Weather: no significant weather observed at this time

METAR text: PGRO 190250Z 09012KT 7SM SCT014 SCT120 28/21 A2988 RMK WIND DATA ESTIMATED
Conditions at: PGRO (ROTA INTL AIRP , FM) observed 0250 UTC 19 April 2019
Temperature: 28.0°C (82°F)
Dewpoint: 21.0°C (70°F) [RH = 66%]
Pressure (altimeter): 29.88 inches Hg (1011.9 mb)
Winds: from the E (90 degrees) at 14 MPH (12 knots; 6.2 m/s)
Visibility: 7 miles (11 km)
Ceiling: at least 12,000 feet AGL
Clouds: scattered clouds at 1400 feet AGL
scattered clouds at 12000 feet AGL
Weather: no significant weather observed at this time

METAR text: PGRO 190150Z 08010KT 7SM SCT014 28/21 A2990 RMK WIND DATA ESTIMATED
Conditions at: PGRO (ROTA INTL AIRP , FM) observed 0150 UTC 19 April 2019
Temperature: 28.0°C (82°F)
Dewpoint: 21.0°C (70°F) [RH = 66%]
Pressure (altimeter): 29.90 inches Hg (1012.6 mb)
Winds: from the E (80 degrees) at 12 MPH (10 knots; 5.1 m/s)
Visibility: 7 miles (11 km)
Ceiling: at least 12,000 feet AGL
Clouds: scattered clouds at 1400 feet AGL
Weather: no significant weather observed at this time

METAR text: PGRO 190050Z 09010KT 7SM SCT014 29/20 A2992 RMK WIND DATA ESTIMATED
Conditions at: PGRO (ROTA INTL AIRP , FM) observed 0050 UTC 19 April 2019
Temperature: 29.0°C (84°F)
Dewpoint: 20.0°C (68°F) [RH = 58%]
Pressure (altimeter): 29.92 inches Hg (1013.3 mb)
Winds: from the E (90 degrees) at 12 MPH (10 knots; 5.1 m/s)
Visibility: 7 miles (11 km)
Ceiling: at least 12,000 feet AGL
Clouds: scattered clouds at 1400 feet AGL
Weather: no significant weather observed at this time

METAR text: PGRO 182350Z 08008KT 7SM FEW015 SCT120 28/21 A2994 RMK WIND DATA ESTIMATED
Conditions at: PGRO (ROTA INTL AIRP , FM) observed 2350 UTC 18 April 2019
Temperature: 28.0°C (82°F)
Dewpoint: 21.0°C (70°F) [RH = 66%]
Pressure (altimeter): 29.94 inches Hg (1014.0 mb)
Winds: from the E (80 degrees) at 9 MPH (8 knots; 4.1 m/s)
Visibility: 7 miles (11 km)
Ceiling: at least 12,000 feet AGL
Clouds: few clouds at 1500 feet AGL
scattered clouds at 12000 feet AGL
Weather: no significant weather observed at this time

METAR text: PGRO 182250Z 09008KT 7SM FEW015 SCT120 27/21 A2994 RMK WIND DATA ESTIMATED
Conditions at: PGRO (ROTA INTL AIRP , FM) observed 2250 UTC 18 April 2019
Temperature: 27.0°C (81°F)
Dewpoint: 21.0°C (70°F) [RH = 70%]
Pressure (altimeter): 29.94 inches Hg (1014.0 mb)
Winds: from the E (90 degrees) at 9 MPH (8 knots; 4.1 m/s)
Visibility: 7 miles (11 km)
Ceiling: at least 12,000 feet AGL
Clouds: few clouds at 1500 feet AGL
scattered clouds at 12000 feet AGL
Weather: no significant weather observed at this time

METAR text: PGRO 182150Z 09010KT 7SM FEW015 27/21 A2994 RMK WIND DATA ESTIMATED
Conditions at: PGRO (ROTA INTL AIRP , FM) observed 2150 UTC 18 April 2019
Temperature: 27.0°C (81°F)
Dewpoint: 21.0°C (70°F) [RH = 70%]
Pressure (altimeter): 29.94 inches Hg (1014.0 mb)
Winds: from the E (90 degrees) at 12 MPH (10 knots; 5.1 m/s)
Visibility: 7 miles (11 km)
Ceiling: at least 12,000 feet AGL
Clouds: few clouds at 1500 feet AGL
Weather: no significant weather observed at this time

METAR text: PGRO 182050Z 09010KT 7SM FEW015 24/22 A2992 RMK WIND DATA ESTIMATED
Conditions at: PGRO (ROTA INTL AIRP , FM) observed 2050 UTC 18 April 2019
Temperature: 24.0°C (75°F)
Dewpoint: 22.0°C (72°F) [RH = 89%]
Pressure (altimeter): 29.92 inches Hg (1013.3 mb)
Winds: from the E (90 degrees) at 12 MPH (10 knots; 5.1 m/s)
Visibility: 7 miles (11 km)
Ceiling: at least 12,000 feet AGL
Clouds: few clouds at 1500 feet AGL
Weather: no significant weather observed at this time

METAR text: PGRO 182005Z 09009KT 7SM FEW015 24/22 A2991 RMK WIND DATA ESTIMATED FIRST
Conditions at: PGRO (ROTA INTL AIRP , FM) observed 2005 UTC 18 April 2019
Temperature: 24.0°C (75°F)
Dewpoint: 22.0°C (72°F) [RH = 89%]
Pressure (altimeter): 29.91 inches Hg (1013.0 mb)
Winds: from the E (90 degrees) at 10 MPH (9 knots; 4.6 m/s)
Visibility: 7 miles (11 km)
Ceiling: at least 12,000 feet AGL
Clouds: few clouds at 1500 feet AGL
Weather: no significant weather observed at this time

METAR text: PGRO 180950Z 09010KT 7SM FEW015 26/22 A2992 RMK WIND DATA ESTIMATED LAST
Conditions at: PGRO (ROTA INTL AIRP , FM) observed 0950 UTC 18 April 2019
Temperature: 26.0°C (79°F)
Dewpoint: 22.0°C (72°F) [RH = 79%]
Pressure (altimeter): 29.92 inches Hg (1013.3 mb)
Winds: from the E (90 degrees) at 12 MPH (10 knots; 5.1 m/s)
Visibility: 7 miles (11 km)
Ceiling: at least 12,000 feet AGL
Clouds: few clouds at 1500 feet AGL
Weather: no significant weather observed at this time

METAR text: PGRO 180850Z 09013KT 7SM FEW014 SCT120 26/22 A2991 RMK WIND DATA ESTIMATED
Conditions at: PGRO (ROTA INTL AIRP , FM) observed 0850 UTC 18 April 2019
Temperature: 26.0°C (79°F)
Dewpoint: 22.0°C (72°F) [RH = 79%]
Pressure (altimeter): 29.91 inches Hg (1013.0 mb)
Winds: from the E (90 degrees) at 15 MPH (13 knots; 6.7 m/s)
Visibility: 7 miles (11 km)
Ceiling: at least 12,000 feet AGL
Clouds: few clouds at 1400 feet AGL
scattered clouds at 12000 feet AGL
Weather: no significant weather observed at this time

METAR text: PGRO 180750Z 08012KT 7SM FEW014 SCT120 27/22 A2988 RMK WIND DATA ESTIMATED
Conditions at: PGRO (ROTA INTL AIRP , FM) observed 0750 UTC 18 April 2019
Temperature: 27.0°C (81°F)
Dewpoint: 22.0°C (72°F) [RH = 74%]
Pressure (altimeter): 29.88 inches Hg (1011.9 mb)
Winds: from the E (80 degrees) at 14 MPH (12 knots; 6.2 m/s)
Visibility: 7 miles (11 km)
Ceiling: at least 12,000 feet AGL
Clouds: few clouds at 1400 feet AGL
scattered clouds at 12000 feet AGL
Weather: no significant weather observed at this time

METAR text: PGRO 180650Z 08014KT 7SM FEW014 SCT120 28/23 A2986 RMK WIND DATA ESTIMATED
Conditions at: PGRO (ROTA INTL AIRP , FM) observed 0650 UTC 18 April 2019
Temperature: 28.0°C (82°F)
Dewpoint: 23.0°C (73°F) [RH = 74%]
Pressure (altimeter): 29.86 inches Hg (1011.3 mb)
Winds: from the E (80 degrees) at 16 MPH (14 knots; 7.2 m/s)
Visibility: 7 miles (11 km)
Ceiling: at least 12,000 feet AGL
Clouds: few clouds at 1400 feet AGL
scattered clouds at 12000 feet AGL
Weather: no significant weather observed at this time

METAR text: PGRO 180550Z 09012KT 7SM SCT015 28/22 A2987 RMK WIND DATA ESTIMATED
Conditions at: PGRO (ROTA INTL AIRP , FM) observed 0550 UTC 18 April 2019
Temperature: 28.0°C (82°F)
Dewpoint: 22.0°C (72°F) [RH = 70%]
Pressure (altimeter): 29.87 inches Hg (1011.6 mb)
Winds: from the E (90 degrees) at 14 MPH (12 knots; 6.2 m/s)
Visibility: 7 miles (11 km)
Ceiling: at least 12,000 feet AGL
Clouds: scattered clouds at 1500 feet AGL
Weather: no significant weather observed at this time

METAR text: PGRO 180450Z 09012KT 7SM FEW020 28/22 A2988 RMK WIND DATA ESTIMATED
Conditions at: PGRO (ROTA INTL AIRP , FM) observed 0450 UTC 18 April 2019
Temperature: 28.0°C (82°F)
Dewpoint: 22.0°C (72°F) [RH = 70%]
Pressure (altimeter): 29.88 inches Hg (1011.9 mb)
Winds: from the E (90 degrees) at 14 MPH (12 knots; 6.2 m/s)
Visibility: 7 miles (11 km)
Ceiling: at least 12,000 feet AGL
Clouds: few clouds at 2000 feet AGL
Weather: no significant weather observed at this time

METAR text: PGRO 180350Z 09015KT 7SM FEW025 29/19 A2990 RMK WIND DATA ESTIMATED
Conditions at: PGRO (ROTA INTL AIRP , FM) observed 0350 UTC 18 April 2019
Temperature: 29.0°C (84°F)
Dewpoint: 19.0°C (66°F) [RH = 55%]
Pressure (altimeter): 29.90 inches Hg (1012.6 mb)
Winds: from the E (90 degrees) at 17 MPH (15 knots; 7.7 m/s)
Visibility: 7 miles (11 km)
Ceiling: at least 12,000 feet AGL
Clouds: few clouds at 2500 feet AGL
Weather: no significant weather observed at this time

METAR text: PGRO 180250Z 09016KT 7SM FEW025 28/20 A2992 RMK WIND DATA ESTIMATED
Conditions at: PGRO (ROTA INTL AIRP , FM) observed 0250 UTC 18 April 2019
Temperature: 28.0°C (82°F)
Dewpoint: 20.0°C (68°F) [RH = 62%]
Pressure (altimeter): 29.92 inches Hg (1013.3 mb)
Winds: from the E (90 degrees) at 18 MPH (16 knots; 8.2 m/s)
Visibility: 7 miles (11 km)
Ceiling: at least 12,000 feet AGL
Clouds: few clouds at 2500 feet AGL
Weather: no significant weather observed at this time

METAR text: PGRO 180150Z 10016KT 7SM FEW035 28/20 A2994 RMK WIND DATA ESTIMATED
Conditions at: PGRO (ROTA INTL AIRP , FM) observed 0150 UTC 18 April 2019
Temperature: 28.0°C (82°F)
Dewpoint: 20.0°C (68°F) [RH = 62%]
Pressure (altimeter): 29.94 inches Hg (1014.0 mb)
Winds: from the E (100 degrees) at 18 MPH (16 knots; 8.2 m/s)
Visibility: 7 miles (11 km)
Ceiling: at least 12,000 feet AGL
Clouds: few clouds at 3500 feet AGL
Weather: no significant weather observed at this time

METAR text: PGRO 180050Z 09016KT 7SM FEW035 28/21 A2995 RMK WIND DATA ESTIMATED
Conditions at: PGRO (ROTA INTL AIRP , FM) observed 0050 UTC 18 April 2019
Temperature: 28.0°C (82°F)
Dewpoint: 21.0°C (70°F) [RH = 66%]
Pressure (altimeter): 29.95 inches Hg (1014.3 mb)
Winds: from the E (90 degrees) at 18 MPH (16 knots; 8.2 m/s)
Visibility: 7 miles (11 km)
Ceiling: at least 12,000 feet AGL
Clouds: few clouds at 3500 feet AGL
Weather: no significant weather observed at this time

METAR text: PGRO 172350Z 07012KT 7SM FEW025 28/20 A2997 RMK WIND DATA ESTIMATED
Conditions at: PGRO (ROTA INTL AIRP , FM) observed 2350 UTC 17 April 2019
Temperature: 28.0°C (82°F)
Dewpoint: 20.0°C (68°F) [RH = 62%]
Pressure (altimeter): 29.97 inches Hg (1015.0 mb)
Winds: from the ENE (70 degrees) at 14 MPH (12 knots; 6.2 m/s)
Visibility: 7 miles (11 km)
Ceiling: at least 12,000 feet AGL
Clouds: few clouds at 2500 feet AGL
Weather: no significant weather observed at this time

METAR text: PGRO 172250Z 09014KT 7SM FEW025 FEW150 27/20 A2997 RMK WIND DATA ESTIMATED
Conditions at: PGRO (ROTA INTL AIRP , FM) observed 2250 UTC 17 April 2019
Temperature: 27.0°C (81°F)
Dewpoint: 20.0°C (68°F) [RH = 66%]
Pressure (altimeter): 29.97 inches Hg (1015.0 mb)
Winds: from the E (90 degrees) at 16 MPH (14 knots; 7.2 m/s)
Visibility: 7 miles (11 km)
Ceiling: at least 12,000 feet AGL
Clouds: few clouds at 2500 feet AGL
few clouds at 15000 feet AGL
Weather: no significant weather observed at this time

METAR text: PGRO 172150Z 10012KT 7SM FEW150 27/20 A2996 RMK WIND DATA ESTIMATED
Conditions at: PGRO (ROTA INTL AIRP , FM) observed 2150 UTC 17 April 2019
Temperature: 27.0°C (81°F)
Dewpoint: 20.0°C (68°F) [RH = 66%]
Pressure (altimeter): 29.96 inches Hg (1014.6 mb)
Winds: from the E (100 degrees) at 14 MPH (12 knots; 6.2 m/s)
Visibility: 7 miles (11 km)
Ceiling: at least 12,000 feet AGL
Clouds: few clouds at 15000 feet AGL
Weather: no significant weather observed at this time

METAR text: PGRO 172050Z 12008KT 7SM FEW015 25/20 A2995 RMK WIND DATA ESTIMATED
Conditions at: PGRO (ROTA INTL AIRP , FM) observed 2050 UTC 17 April 2019
Temperature: 25.0°C (77°F)
Dewpoint: 20.0°C (68°F) [RH = 74%]
Pressure (altimeter): 29.95 inches Hg (1014.3 mb)
Winds: from the ESE (120 degrees) at 9 MPH (8 knots; 4.1 m/s)
Visibility: 7 miles (11 km)
Ceiling: at least 12,000 feet AGL
Clouds: few clouds at 1500 feet AGL
Weather: no significant weather observed at this time

Forecast for: PGRO (ROTA INTL AIRP , FM)
Text: PGRO 190539Z 1906/2006 07011KT P6SM VCSH SCT015 SCT040
Forecast period: 0600 UTC 19 April 2019 to 0600 UTC 20 April 2019
Forecast type: FROM: standard forecast or significant change
Winds: from the ENE (70 degrees) at 13 MPH (11 knots; 5.7 m/s)
Visibility: 6 or more miles 10+ km)
Ceiling: at least 12,000 feet AGL
Clouds: scattered clouds at 1500 feet AGL
scattered clouds at 4000 feet AGL
Weather: VCSH  (showers in vicinity)
Text: TEMPO 1906/1909 -SHRA BKN015 BKN040
Forecast period: 0600 to 0900 UTC 19 April 2019
Forecast type: TEMPORARY: The following changes expected for less than half the time period
Visibility: missing
Ceiling: 1500 feet AGL
Clouds: broken clouds at 1500 feet AGL
broken clouds at 4000 feet AGL
Weather: -SHRA  (light rain showers)